Time;durP1;ratioP1;P1;durP2;ratioP2;P2;SDS_P1;SDS_P2;PMS_P1;PMS_P2;Temp;Humidity;BMP_temperature;BMP_pressure;BME280_temperature;BME280_humidity;BME280_pressure;Samples;Min_cycle;Max_cycle;Signal;HPM_P1;HPM_P2
2021/07/03 00:01:32;;;;;;;;;;;15.40;85.70;;;;;;5053901;28;19917;-68
2021/07/03 00:03:58;;;;;;;;;;;15.30;85.80;;;;;;5054394;28;19917;-68
2021/07/03 00:06:24;;;;;;;;;;;15.30;86.10;;;;;;5054334;28;19917;-68
2021/07/03 00:08:49;;;;;;;;;;;15.30;86.30;;;;;;5053421;28;20266;-68
2021/07/03 00:11:15;;;;;;;;;;;15.20;86.50;;;;;;5054144;28;20369;-68
2021/07/03 00:13:40;;;;;;;;;;;15.20;86.50;;;;;;5052388;28;19917;-66
2021/07/03 00:16:06;;;;;;;;;;;15.10;86.60;;;;;;5053111;28;19916;-68
2021/07/03 00:18:32;;;;;;;;;;;15.10;86.80;;;;;;5052477;28;19917;-68
2021/07/03 00:20:57;;;;;;;;;;;15.10;87.10;;;;;;5035576;28;19955;-61
2021/07/03 00:23:23;;;;;;;;;;;15.00;87.20;;;;;;5053724;28;19924;-60
2021/07/03 00:25:49;;;;;;;;;;;15.00;87.40;;;;;;5053728;28;19924;-59
2021/07/03 00:28:14;;;;;;;;;;;14.90;87.50;;;;;;5053111;28;19970;-60
2021/07/03 00:30:40;;;;;;;;;;;14.80;87.60;;;;;;5053702;28;19920;-59
2021/07/03 00:33:05;;;;;;;;;;;14.80;87.80;;;;;;5053741;28;19932;-59
2021/07/03 00:35:31;;;;;;;;;;;14.80;88.00;;;;;;5053204;28;20131;-60
2021/07/03 00:37:57;;;;;;;;;;;14.70;88.20;;;;;;5053241;28;20457;-60
2021/07/03 00:40:22;;;;;;;;;;;14.70;88.30;;;;;;5068846;28;19924;-60
2021/07/03 00:42:48;;;;;;;;;;;14.70;88.40;;;;;;5053178;28;19916;-60
2021/07/03 00:45:14;;;;;;;;;;;14.70;88.50;;;;;;5053191;28;19923;-60
2021/07/03 00:47:42;;;;;;;;;;;14.60;88.60;;;;;;5051456;28;20289;-60
2021/07/03 00:50:09;;;;;;;;;;;14.60;88.80;;;;;;5052006;28;20292;-60
2021/07/03 00:52:37;;;;;;;;;;;14.50;88.90;;;;;;5053096;28;19955;-60
2021/07/03 00:55:03;;;;;;;;;;;14.50;89.00;;;;;;5051633;28;20288;-59
2021/07/03 00:57:31;;;;;;;;;;;14.50;89.10;;;;;;5052953;28;19960;-59
2021/07/03 00:59:56;;;;;;;;;;;14.40;89.20;;;;;;5052634;28;19917;-61
2021/07/03 01:02:24;;;;;;;;;;;14.40;89.20;;;;;;5051767;28;20014;-60
2021/07/03 01:04:51;;;;;;;;;;;14.40;89.40;;;;;;5068200;28;19917;-60
2021/07/03 01:07:23;;;;;;;;;;;14.40;89.60;;;;;;5067851;28;19917;-60
2021/07/03 01:09:50;;;;;;;;;;;14.30;89.60;;;;;;5053238;28;19917;-59
2021/07/03 01:12:17;;;;;;;;;;;14.30;89.90;;;;;;5051297;28;19951;-61
2021/07/03 01:14:44;;;;;;;;;;;14.20;90.00;;;;;;5052820;28;20424;-60
2021/07/03 01:17:10;;;;;;;;;;;14.20;90.00;;;;;;5051247;28;20042;-60
2021/07/03 01:19:37;;;;;;;;;;;14.20;90.10;;;;;;5051070;28;19912;-59
2021/07/03 01:22:11;;;;;;;;;;;14.20;90.10;;;;;;5034939;28;20300;-60
2021/07/03 01:24:37;;;;;;;;;;;14.20;90.10;;;;;;5052166;28;20179;-60
2021/07/03 01:27:05;;;;;;;;;;;14.20;90.20;;;;;;5050961;28;20325;-60
2021/07/03 01:29:31;;;;;;;;;;;14.10;90.20;;;;;;5051381;28;20377;-59
2021/07/03 01:31:58;;;;;;;;;;;14.10;90.20;;;;;;5050879;28;20031;-60
2021/07/03 01:34:25;;;;;;;;;;;14.00;90.30;;;;;;5034558;28;20039;-59
2021/07/03 01:36:51;;;;;;;;;;;14.00;90.30;;;;;;5052157;28;20305;-60
2021/07/03 01:39:17;;;;;;;;;;;14.00;90.40;;;;;;5050846;28;20440;-59
2021/07/03 01:41:44;;;;;;;;;;;14.00;90.50;;;;;;5050975;28;19944;-60
2021/07/03 01:44:12;;;;;;;;;;;13.90;90.50;;;;;;5066981;28;20003;-59
2021/07/03 01:46:38;;;;;;;;;;;13.90;90.50;;;;;;5067471;28;20012;-60
2021/07/03 01:49:04;;;;;;;;;;;13.90;90.60;;;;;;5051021;28;20362;-59
2021/07/03 01:51:44;;;;;;;;;;;13.80;90.60;;;;;;5050369;28;20011;-60
2021/07/03 01:54:10;;;;;;;;;;;13.80;90.60;;;;;;5067402;28;19959;-59
2021/07/03 01:56:42;;;;;;;;;;;13.70;90.70;;;;;;5051484;28;20369;-60
2021/07/03 01:59:12;;;;;;;;;;;13.70;90.70;;;;;;5052099;28;19967;-59
2021/07/03 02:01:53;;;;;;;;;;;13.70;90.80;;;;;;5050131;28;20341;-59
2021/07/03 02:04:22;;;;;;;;;;;13.70;90.80;;;;;;5050722;28;19916;-60
2021/07/03 02:06:48;;;;;;;;;;;13.60;90.80;;;;;;5051128;28;20440;-59
2021/07/03 02:09:18;;;;;;;;;;;13.60;90.80;;;;;;5050568;28;20012;-60
2021/07/03 02:11:44;;;;;;;;;;;13.50;90.90;;;;;;5033932;28;19927;-60
2021/07/03 02:14:17;;;;;;;;;;;13.50;90.90;;;;;;5050261;28;20394;-59
2021/07/03 02:16:57;;;;;;;;;;;13.40;90.90;;;;;;5049835;28;19923;-60
2021/07/03 02:19:24;;;;;;;;;;;13.40;90.90;;;;;;5067072;28;20431;-59
2021/07/03 02:21:52;;;;;;;;;;;13.40;91.00;;;;;;5034041;28;19916;-60
2021/07/03 02:24:26;;;;;;;;;;;13.30;91.00;;;;;;5034387;28;20007;-60
2021/07/03 02:26:53;;;;;;;;;;;13.30;91.10;;;;;;5051395;28;19917;-59
2021/07/03 02:29:18;;;;;;;;;;;13.30;91.20;;;;;;5051121;28;20403;-60
2021/07/03 02:31:44;;;;;;;;;;;13.30;91.20;;;;;;5033352;28;20020;-59
2021/07/03 02:34:10;;;;;;;;;;;13.30;91.40;;;;;;5050246;28;19924;-59
2021/07/03 02:36:35;;;;;;;;;;;13.30;91.60;;;;;;5066259;28;20336;-60
2021/07/03 02:39:06;;;;;;;;;;;13.30;91.40;;;;;;5050983;28;19924;-59
2021/07/03 02:41:37;;;;;;;;;;;13.30;91.40;;;;;;5066594;28;19957;-60
2021/07/03 02:44:04;;;;;;;;;;;13.30;91.30;;;;;;5066693;28;19924;-59
2021/07/03 02:46:31;;;;;;;;;;;13.30;91.30;;;;;;5051499;28;19931;-59
2021/07/03 02:48:56;;;;;;;;;;;13.20;91.30;;;;;;5049499;28;19921;-60
2021/07/03 02:51:23;;;;;;;;;;;13.20;91.40;;;;;;5066653;28;19923;-59
2021/07/03 02:53:49;;;;;;;;;;;13.10;91.40;;;;;;5051102;28;19917;-60
2021/07/03 02:56:15;;;;;;;;;;;13.10;91.40;;;;;;5066891;28;20373;-59
2021/07/03 02:58:42;;;;;;;;;;;13.10;91.50;;;;;;5066402;28;19952;-59
2021/07/03 03:01:09;;;;;;;;;;;13.10;91.50;;;;;;5033100;28;19924;-59
2021/07/03 03:03:35;;;;;;;;;;;13.00;91.50;;;;;;5066618;28;19923;-59
2021/07/03 03:06:01;;;;;;;;;;;13.00;91.60;;;;;;5032938;28;20016;-60
2021/07/03 03:08:27;;;;;;;;;;;13.00;91.70;;;;;;5051041;28;19920;-59
2021/07/03 03:10:53;;;;;;;;;;;13.00;91.70;;;;;;5033485;28;19917;-59
2021/07/03 03:13:19;;;;;;;;;;;13.00;91.80;;;;;;5050731;28;19921;-60
2021/07/03 03:15:45;;;;;;;;;;;13.00;91.70;;;;;;5066442;28;19932;-59
2021/07/03 03:18:11;;;;;;;;;;;13.00;91.70;;;;;;5066262;28;20116;-59
2021/07/03 03:20:38;;;;;;;;;;;13.00;91.70;;;;;;5065968;28;19917;-60
2021/07/03 03:23:05;;;;;;;;;;;12.90;91.70;;;;;;5066474;28;20324;-59
2021/07/03 03:25:31;;;;;;;;;;;13.00;91.80;;;;;;5049315;28;19932;-59
2021/07/03 03:27:56;;;;;;;;;;;12.90;91.80;;;;;;5066182;28;19995;-59
2021/07/03 03:30:22;;;;;;;;;;;12.90;91.80;;;;;;5066534;28;19917;-59
2021/07/03 03:32:49;;;;;;;;;;;12.90;91.80;;;;;;5050526;28;19920;-60
2021/07/03 03:35:16;;;;;;;;;;;12.90;91.80;;;;;;5033097;28;19917;-59
2021/07/03 03:37:44;;;;;;;;;;;12.90;91.90;;;;;;5065783;28;20346;-60
2021/07/03 03:40:13;;;;;;;;;;;12.90;92.10;;;;;;5049750;28;19916;-67
2021/07/03 03:42:39;;;;;;;;;;;13.00;92.30;;;;;;5066260;28;20376;-67
2021/07/03 03:45:05;;;;;;;;;;;13.10;92.30;;;;;;5050474;28;19924;-67
2021/07/03 03:47:31;;;;;;;;;;;13.10;92.20;;;;;;5050612;28;19928;-67
2021/07/03 03:49:57;;;;;;;;;;;13.20;92.20;;;;;;5066279;28;19923;-67
2021/07/03 03:52:22;;;;;;;;;;;13.20;92.30;;;;;;5051935;28;20000;-67
2021/07/03 03:54:50;;;;;;;;;;;13.20;92.10;;;;;;5069742;28;20270;-67
2021/07/03 03:57:21;;;;;;;;;;;13.20;92.10;;;;;;5052388;28;20381;-66
2021/07/03 03:59:48;;;;;;;;;;;13.20;92.20;;;;;;5053123;28;19919;-68
2021/07/03 04:02:14;;;;;;;;;;;13.30;92.60;;;;;;5054479;28;19921;-67
2021/07/03 04:04:41;;;;;;;;;;;13.40;92.80;;;;;;5052403;28;19916;-68
2021/07/03 04:07:06;;;;;;;;;;;13.50;92.80;;;;;;5052756;28;19923;-67
2021/07/03 04:09:32;;;;;;;;;;;13.70;92.80;;;;;;5053702;28;19917;-67
2021/07/03 04:11:58;;;;;;;;;;;13.80;92.70;;;;;;5054175;28;20011;-67
2021/07/03 04:14:23;;;;;;;;;;;13.90;92.60;;;;;;5054164;28;19924;-67
2021/07/03 04:16:49;;;;;;;;;;;14.00;92.50;;;;;;5053752;28;19917;-67
2021/07/03 04:19:15;;;;;;;;;;;14.10;92.50;;;;;;5053945;28;19920;-68
2021/07/03 04:21:40;;;;;;;;;;;14.20;92.60;;;;;;5054163;28;19917;-68
2021/07/03 04:24:06;;;;;;;;;;;14.30;92.70;;;;;;5053815;28;19923;-71
2021/07/03 04:26:31;;;;;;;;;;;14.30;92.80;;;;;;5053806;28;19924;-71
2021/07/03 04:28:57;;;;;;;;;;;14.40;92.90;;;;;;5053155;28;19916;-71
2021/07/03 04:31:22;;;;;;;;;;;14.60;92.80;;;;;;5053697;28;19921;-71
2021/07/03 04:33:48;;;;;;;;;;;14.70;92.70;;;;;;5053679;28;19917;-71
2021/07/03 04:36:14;;;;;;;;;;;14.70;92.50;;;;;;5053303;28;19916;-71
2021/07/03 04:38:39;;;;;;;;;;;14.70;92.30;;;;;;5035390;28;20439;-71
2021/07/03 04:41:07;;;;;;;;;;;14.70;92.30;;;;;;5052214;28;19919;-72
2021/07/03 04:43:33;;;;;;;;;;;14.70;92.40;;;;;;5053103;28;19923;-71
2021/07/03 04:46:00;;;;;;;;;;;14.80;93.10;;;;;;5053653;28;19917;-71
2021/07/03 04:48:26;;;;;;;;;;;15.00;93.30;;;;;;5034906;28;19920;-70
2021/07/03 04:50:51;;;;;;;;;;;15.30;93.20;;;;;;5053432;28;19916;-71
2021/07/03 04:53:17;;;;;;;;;;;15.40;92.80;;;;;;5053149;28;19955;-71
2021/07/03 04:55:44;;;;;;;;;;;15.50;92.80;;;;;;5052820;28;19917;-71
2021/07/03 04:58:10;;;;;;;;;;;15.70;92.70;;;;;;5053114;28;19924;-71
2021/07/03 05:00:35;;;;;;;;;;;15.80;92.80;;;;;;5052853;28;19921;-71
2021/07/03 05:03:01;;;;;;;;;;;16.00;92.70;;;;;;5053017;28;19917;-71
2021/07/03 05:05:27;;;;;;;;;;;16.10;92.60;;;;;;5035258;28;20027;-71
2021/07/03 05:07:52;;;;;;;;;;;16.10;92.30;;;;;;5052493;28;19927;-70
2021/07/03 05:10:18;;;;;;;;;;;16.20;92.30;;;;;;5053073;28;19917;-71
2021/07/03 05:12:44;;;;;;;;;;;16.20;92.30;;;;;;5052918;28;19927;-71
2021/07/03 05:15:10;;;;;;;;;;;16.30;92.70;;;;;;5052443;28;19916;-71
2021/07/03 05:17:35;;;;;;;;;;;16.40;92.30;;;;;;5052574;28;19921;-71
2021/07/03 05:20:01;;;;;;;;;;;16.50;92.30;;;;;;5052372;28;20381;-70
2021/07/03 05:22:27;;;;;;;;;;;16.60;92.30;;;;;;5052739;28;19952;-72
2021/07/03 05:24:52;;;;;;;;;;;16.70;92.10;;;;;;5052574;28;19924;-71
2021/07/03 05:27:18;;;;;;;;;;;16.80;92.10;;;;;;5052114;28;19962;-71
2021/07/03 05:29:43;;;;;;;;;;;16.90;92.10;;;;;;5051391;28;19917;-71
2021/07/03 05:32:09;;;;;;;;;;;17.00;91.80;;;;;;5052082;28;19944;-71
2021/07/03 05:34:35;;;;;;;;;;;17.20;92.00;;;;;;5052209;28;20015;-71
2021/07/03 05:37:00;;;;;;;;;;;17.30;91.90;;;;;;5052312;28;19917;-72
2021/07/03 05:39:26;;;;;;;;;;;17.50;91.60;;;;;;5052511;28;20392;-72
2021/07/03 05:41:52;;;;;;;;;;;17.50;91.70;;;;;;5052135;28;19916;-72
2021/07/03 05:44:17;;;;;;;;;;;17.80;91.90;;;;;;5052543;28;19982;-72
2021/07/03 05:46:43;;;;;;;;;;;18.10;91.50;;;;;;5051809;28;19917;-71
2021/07/03 05:49:08;;;;;;;;;;;18.20;91.30;;;;;;5067534;28;20297;-72
2021/07/03 05:51:35;;;;;;;;;;;18.40;91.90;;;;;;5052284;28;19921;-71
2021/07/03 05:54:01;;;;;;;;;;;18.70;91.30;;;;;;5051679;28;20397;-71
2021/07/03 05:56:26;;;;;;;;;;;18.80;91.10;;;;;;5052206;28;19916;-72
2021/07/03 05:58:52;;;;;;;;;;;19.20;91.80;;;;;;5033956;28;19925;-72
2021/07/03 06:01:18;;;;;;;;;;;19.80;91.90;;;;;;5051678;28;19917;-72
2021/07/03 06:03:44;;;;;;;;;;;20.20;90.80;;;;;;5052057;28;19963;-72
2021/07/03 06:06:10;;;;;;;;;;;20.20;89.50;;;;;;5051490;28;19924;-71
2021/07/03 06:08:35;;;;;;;;;;;20.10;87.60;;;;;;5051704;28;19916;-72
2021/07/03 06:11:01;;;;;;;;;;;19.90;86.60;;;;;;5067230;28;19974;-71
2021/07/03 06:13:27;;;;;;;;;;;19.70;85.60;;;;;;5050753;28;19921;-71
2021/07/03 06:15:53;;;;;;;;;;;19.60;86.00;;;;;;5050295;28;20284;-71
2021/07/03 06:18:18;;;;;;;;;;;19.60;86.00;;;;;;5050253;28;19952;-72
2021/07/03 06:20:44;;;;;;;;;;;19.70;86.40;;;;;;5051406;28;20426;-72
2021/07/03 06:23:10;;;;;;;;;;;19.90;86.30;;;;;;5051601;28;19921;-72
2021/07/03 06:25:35;;;;;;;;;;;20.30;86.20;;;;;;5050879;28;19921;-71
2021/07/03 06:28:01;;;;;;;;;;;20.50;85.20;;;;;;5051214;28;20391;-72
2021/07/03 06:30:26;;;;;;;;;;;20.50;83.60;;;;;;5050321;28;20309;-72
2021/07/03 06:32:52;;;;;;;;;;;20.40;81.90;;;;;;5049287;28;20011;-72
2021/07/03 06:35:19;;;;;;;;;;;20.20;80.70;;;;;;5050657;28;22468;-71
2021/07/03 06:37:45;;;;;;;;;;;19.90;79.90;;;;;;5051234;28;19996;-72
2021/07/03 06:40:11;;;;;;;;;;;19.70;81.00;;;;;;5051195;28;19917;-72
2021/07/03 06:42:36;;;;;;;;;;;19.60;81.30;;;;;;5051339;28;20299;-72
2021/07/03 06:45:02;;;;;;;;;;;19.60;80.90;;;;;;5051213;28;19917;-71
2021/07/03 06:47:28;;;;;;;;;;;19.60;80.60;;;;;;5051050;28;19971;-71
2021/07/03 06:49:53;;;;;;;;;;;19.50;79.50;;;;;;5051320;28;19921;-71
2021/07/03 06:52:19;;;;;;;;;;;19.30;79.80;;;;;;5050853;28;19924;-72
2021/07/03 06:54:44;;;;;;;;;;;19.20;80.00;;;;;;5051230;28;19955;-72
2021/07/03 06:57:12;;;;;;;;;;;19.20;80.30;;;;;;5051075;28;19959;-72
2021/07/03 06:59:37;;;;;;;;;;;19.30;80.30;;;;;;5050946;28;19971;-72
2021/07/03 07:02:03;;;;;;;;;;;19.50;80.80;;;;;;5066749;28;20295;-72
2021/07/03 07:04:28;;;;;;;;;;;19.70;80.70;;;;;;5050647;28;19924;-70
2021/07/03 07:06:56;;;;;;;;;;;19.80;79.60;;;;;;5050919;28;19931;-72
2021/07/03 07:09:22;;;;;;;;;;;19.80;79.10;;;;;;5049890;28;19948;-72
2021/07/03 07:11:48;;;;;;;;;;;19.90;79.00;;;;;;5050722;28;19917;-71
2021/07/03 07:14:14;;;;;;;;;;;20.10;78.90;;;;;;5049899;28;19917;-72
2021/07/03 07:16:40;;;;;;;;;;;20.50;80.40;;;;;;5050971;28;19955;-72
2021/07/03 07:19:08;;;;;;;;;;;20.80;79.40;;;;;;5050592;28;19963;-72
2021/07/03 07:21:34;;;;;;;;;;;21.10;78.30;;;;;;5051025;28;19964;-72
2021/07/03 07:24:00;;;;;;;;;;;21.20;77.60;;;;;;5050487;28;19975;-72
2021/07/03 07:26:25;;;;;;;;;;;21.60;77.40;;;;;;5054272;28;19920;-72
2021/07/03 07:28:51;;;;;;;;;;;22.10;77.80;;;;;;5054733;28;19927;-72
2021/07/03 07:31:18;;;;;;;;;;;22.50;76.10;;;;;;5054418;28;20026;-71
2021/07/03 07:33:43;;;;;;;;;;;22.50;74.20;;;;;;5054573;28;19927;-72
2021/07/03 07:36:09;;;;;;;;;;;22.30;72.40;;;;;;5054759;28;19917;-71
2021/07/03 07:38:35;;;;;;;;;;;22.10;71.70;;;;;;5053952;28;20372;-72
2021/07/03 07:41:00;;;;;;;;;;;22.00;72.50;;;;;;5054704;28;19916;-72
2021/07/03 07:43:26;;;;;;;;;;;22.80;76.40;;;;;;5052250;28;19929;-71
2021/07/03 07:45:55;;;;;;;;;;;23.70;75.20;;;;;;5042895;28;19996;-71
2021/07/03 07:48:20;;;;;;;;;;;24.30;71.40;;;;;;5044394;28;19924;-72
2021/07/03 07:50:46;;;;;;;;;;;24.50;69.50;;;;;;5022323;28;19918;-72
2021/07/03 07:53:11;;;;;;;;;;;24.20;66.90;;;;;;5014672;28;19932;-72
2021/07/03 07:55:37;;;;;;;;;;;24.00;65.90;;;;;;5014584;28;20008;-72
2021/07/03 07:58:02;;;;;;;;;;;23.90;66.80;;;;;;5027705;28;19925;-72
2021/07/03 08:00:28;;;;;;;;;;;23.90;66.00;;;;;;5047250;28;19921;-72
2021/07/03 08:02:54;;;;;;;;;;;23.60;64.20;;;;;;5048551;28;19924;-71
2021/07/03 08:05:20;;;;;;;;;;;23.10;63.90;;;;;;5047391;28;19921;-72
2021/07/03 08:07:45;;;;;;;;;;;22.60;64.20;;;;;;5045244;28;19925;-72
2021/07/03 08:10:12;;;;;;;;;;;22.50;65.90;;;;;;5053804;28;20332;-72
2021/07/03 08:12:38;;;;;;;;;;;22.90;66.70;;;;;;5053821;28;19921;-72
2021/07/03 08:15:04;;;;;;;;;;;23.50;68.30;;;;;;5049775;28;19925;-72
2021/07/03 08:17:30;;;;;;;;;;;25.00;70.00;;;;;;5046456;28;19921;-72
2021/07/03 08:19:56;;;;;;;;;;;26.20;67.00;;;;;;5045645;28;20341;-72
2021/07/03 08:22:21;;;;;;;;;;;26.80;63.60;;;;;;5052299;28;19921;-72
2021/07/03 08:24:47;;;;;;;;;;;28.00;64.50;;;;;;5053589;28;19921;-72
2021/07/03 08:27:12;;;;;;;;;;;28.10;58.80;;;;;;5053399;28;19917;-73
2021/07/03 08:29:38;;;;;;;;;;;28.00;58.50;;;;;;5053414;28;20376;-73
2021/07/03 08:32:04;;;;;;;;;;;28.20;57.10;;;;;;5051573;28;19928;-73
2021/07/03 08:34:29;;;;;;;;;;;27.70;54.90;;;;;;5042479;28;20442;-72
2021/07/03 08:36:55;;;;;;;;;;;27.00;54.20;;;;;;5046054;28;20059;-72
2021/07/03 08:39:20;;;;;;;;;;;26.20;53.80;;;;;;5048183;28;19917;-71
2021/07/03 08:41:46;;;;;;;;;;;25.50;54.10;;;;;;5045418;28;19921;-73
2021/07/03 08:44:13;;;;;;;;;;;25.40;56.00;;;;;;5051837;28;19925;-72
2021/07/03 08:46:38;;;;;;;;;;;27.00;59.30;;;;;;5027757;28;19917;-72
2021/07/03 08:49:04;;;;;;;;;;;27.00;54.20;;;;;;5033297;28;19929;-72
2021/07/03 08:51:30;;;;;;;;;;;26.40;53.20;;;;;;5049557;28;20327;-73
2021/07/03 08:53:56;;;;;;;;;;;25.70;52.90;;;;;;5044210;28;19993;-71
2021/07/03 08:56:23;;;;;;;;;;;25.10;53.30;;;;;;5053091;28;19917;-72
2021/07/03 08:58:49;;;;;;;;;;;24.60;53.50;;;;;;5052837;28;20399;-72
2021/07/03 09:01:15;;;;;;;;;;;24.10;54.30;;;;;;5052723;28;19916;-71
2021/07/03 09:03:49;;;;;;;;;;;23.90;55.30;;;;;;5051696;28;20303;-72
2021/07/03 09:06:15;;;;;;;;;;;23.90;56.50;;;;;;5052676;28;19917;-72
2021/07/03 09:08:50;;;;;;;;;;;24.30;56.80;;;;;;5052790;28;19920;-72
2021/07/03 09:11:18;;;;;;;;;;;25.10;57.20;;;;;;5052562;28;20426;-71
2021/07/03 09:13:44;;;;;;;;;;;26.20;58.50;;;;;;5051479;28;19928;-72
2021/07/03 09:16:09;;;;;;;;;;;28.20;59.50;;;;;;5067441;28;19917;-73
2021/07/03 09:18:35;;;;;;;;;;;30.50;57.50;;;;;;5051407;28;19924;-73
2021/07/03 09:21:02;;;;;;;;;;;32.40;53.70;;;;;;5047477;28;19933;-73
2021/07/03 09:23:34;;;;;;;;;;;35.10;53.50;;;;;;5043562;28;19942;-74
2021/07/03 09:26:04;;;;;;;;;;;35.80;46.20;;;;;;5050349;28;19920;-72
2021/07/03 09:28:31;;;;;;;;;;;34.20;42.00;;;;;;5043999;28;19928;-73
2021/07/03 09:30:58;;;;;;;;;;;31.90;41.40;;;;;;5041085;28;19925;-73
2021/07/03 09:33:25;;;;;;;;;;;29.90;42.00;;;;;;5044138;28;19920;-73
2021/07/03 09:35:58;;;;;;;;;;;28.30;43.20;;;;;;5051943;28;19929;-72
2021/07/03 09:38:32;;;;;;;;;;;27.60;45.90;;;;;;5052120;28;20050;-72
2021/07/03 09:41:07;;;;;;;;;;;27.70;47.20;;;;;;5052392;28;19959;-72
2021/07/03 09:43:33;;;;;;;;;;;28.20;47.60;;;;;;5052239;28;20304;-72
2021/07/03 09:45:59;;;;;;;;;;;30.70;50.00;;;;;;5051195;28;19917;-73
2021/07/03 09:48:25;;;;;;;;;;;34.10;48.40;;;;;;5050689;28;19989;-72
2021/07/03 09:50:50;;;;;;;;;;;36.20;43.80;;;;;;5065377;28;20562;-73
2021/07/03 09:53:16;;;;;;;;;;;35.30;37.80;;;;;;5048917;28;19921;-73
2021/07/03 09:55:41;;;;;;;;;;;33.30;36.90;;;;;;5048218;28;19921;-73
2021/07/03 09:58:10;;;;;;;;;;;31.30;37.70;;;;;;5038597;28;19917;-73
2021/07/03 10:00:36;;;;;;;;;;;29.90;38.80;;;;;;5030642;28;19917;-70
2021/07/03 10:03:06;;;;;;;;;;;28.90;40.30;;;;;;5032165;28;19917;-72
2021/07/03 10:05:33;;;;;;;;;;;28.10;40.60;;;;;;5031116;28;20486;-72
2021/07/03 10:08:02;;;;;;;;;;;27.50;42.30;;;;;;5029003;28;19917;-73
2021/07/03 10:10:28;;;;;;;;;;;27.60;43.80;;;;;;5043935;28;20412;-72
2021/07/03 10:13:06;;;;;;;;;;;27.60;43.60;;;;;;5048036;28;19960;-71
2021/07/03 10:15:33;;;;;;;;;;;27.40;43.30;;;;;;5031721;28;20387;-72
2021/07/03 10:18:07;;;;;;;;;;;26.90;43.10;;;;;;5029979;28;19917;-69
2021/07/03 10:20:33;;;;;;;;;;;26.70;44.30;;;;;;5031732;28;19921;-70
2021/07/03 10:22:59;;;;;;;;;;;26.60;44.20;;;;;;5031313;28;19913;-69
2021/07/03 10:25:31;;;;;;;;;;;26.30;44.40;;;;;;5044359;28;19921;-68
2021/07/03 10:27:58;;;;;;;;;;;26.10;44.80;;;;;;5051515;28;20339;-59
2021/07/03 10:30:25;;;;;;;;;;;26.10;45.80;;;;;;5035557;28;19917;-59
2021/07/03 10:32:57;;;;;;;;;;;28.00;49.30;;;;;;5046488;28;19927;-60
2021/07/03 10:35:23;;;;;;;;;;;29.80;47.50;;;;;;5037638;28;20388;-60
2021/07/03 10:37:49;;;;;;;;;;;29.90;44.00;;;;;;5040810;28;19917;-59
2021/07/03 10:40:15;;;;;;;;;;;29.20;42.30;;;;;;5042854;28;20024;-59
2021/07/03 10:42:40;;;;;;;;;;;28.40;42.80;;;;;;5051103;28;19913;-59
2021/07/03 10:45:07;;;;;;;;;;;27.60;43.20;;;;;;5044098;28;19948;-59
2021/07/03 10:47:33;;;;;;;;;;;27.10;44.00;;;;;;5039582;28;20361;-60
2021/07/03 10:49:59;;;;;;;;;;;27.60;46.10;;;;;;5031516;28;19968;-60
2021/07/03 10:52:24;;;;;;;;;;;30.60;48.80;;;;;;5031399;28;19921;-61
2021/07/03 10:55:00;;;;;;;;;;;34.10;46.80;;;;;;5030883;28;19917;-61
2021/07/03 10:57:26;;;;;;;;;;;36.20;42.50;;;;;;5030073;28;19917;-61
2021/07/03 10:59:59;;;;;;;;;;;38.50;40.60;;;;;;5030988;28;19924;-60
2021/07/03 11:02:28;;;;;;;;;;;37.70;34.90;;;;;;5034317;28;19952;-61
2021/07/03 11:04:55;;;;;;;;;;;36.30;35.40;;;;;;5036901;28;19932;-61
2021/07/03 11:07:31;;;;;;;;;;;37.30;36.70;;;;;;5051689;28;19924;-61
2021/07/03 11:10:23;;;;;;;;;;;39.70;36.60;;;;;;5051730;28;20002;-61
2021/07/03 11:12:52;;;;;;;;;;;42.10;34.70;;;;;;5031931;28;19922;-60
2021/07/03 11:15:20;;;;;;;;;;;43.10;31.70;;;;;;5045345;28;20013;-61
2021/07/03 11:17:46;;;;;;;;;;;42.50;30.50;;;;;;5052004;28;20074;-61
2021/07/03 11:20:25;;;;;;;;;;;42.00;30.00;;;;;;5048550;28;19921;-60
2021/07/03 11:22:51;;;;;;;;;;;42.30;29.60;;;;;;5054380;28;20377;-61
2021/07/03 11:25:27;;;;;;;;;;;43.10;29.60;;;;;;5054765;28;19927;-61
2021/07/03 11:27:53;;;;;;;;;;;42.70;28.20;;;;;;5054185;28;19928;-61
2021/07/03 11:30:22;;;;;;;;;;;42.60;28.60;;;;;;5054933;28;19917;-61
2021/07/03 11:32:52;;;;;;;;;;;42.80;27.80;;;;;;5054675;28;19927;-61
2021/07/03 11:35:18;;;;;;;;;;;42.20;27.80;;;;;;5054322;28;20327;-61
2021/07/03 11:37:43;;;;;;;;;;;41.40;27.90;;;;;;5054437;28;19917;-61
2021/07/03 11:40:11;;;;;;;;;;;40.40;28.00;;;;;;5054295;28;19964;-65
2021/07/03 11:42:38;;;;;;;;;;;38.80;28.00;;;;;;5054560;28;20309;-65
2021/07/03 11:45:06;;;;;;;;;;;36.70;28.60;;;;;;5069619;28;19916;-65
2021/07/03 11:47:36;;;;;;;;;;;35.30;29.80;;;;;;5053869;28;19957;-65
2021/07/03 11:50:04;;;;;;;;;;;34.20;30.70;;;;;;5054382;28;20308;-64
2021/07/03 11:52:39;;;;;;;;;;;33.30;31.60;;;;;;5053242;28;19920;-63
2021/07/03 11:55:05;;;;;;;;;;;33.20;32.70;;;;;;5050600;28;19917;-65
2021/07/03 11:57:38;;;;;;;;;;;33.30;32.50;;;;;;5049921;28;20039;-64
2021/07/03 12:00:04;;;;;;;;;;;33.40;32.40;;;;;;5051886;28;20399;-66
2021/07/03 12:02:30;;;;;;;;;;;33.30;32.90;;;;;;5052305;28;19971;-65
2021/07/03 12:04:55;;;;;;;;;;;33.50;33.70;;;;;;5051740;28;19920;-65
2021/07/03 12:07:21;;;;;;;;;;;33.60;33.60;;;;;;5050852;28;19924;-65
2021/07/03 12:09:46;;;;;;;;;;;33.50;33.70;;;;;;5052837;28;19962;-64
2021/07/03 12:12:12;;;;;;;;;;;33.20;33.30;;;;;;5052874;28;20297;-64
2021/07/03 12:14:38;;;;;;;;;;;32.20;33.30;;;;;;5054131;28;20294;-66
2021/07/03 12:17:03;;;;;;;;;;;31.00;34.00;;;;;;5053291;28;20381;-64
2021/07/03 12:19:29;;;;;;;;;;;29.90;34.80;;;;;;5053787;28;20396;-64
2021/07/03 12:22:04;;;;;;;;;;;29.10;36.20;;;;;;5069025;28;19998;-64
2021/07/03 12:24:30;;;;;;;;;;;28.90;37.10;;;;;;5053350;28;19925;-64
2021/07/03 12:26:57;;;;;;;;;;;28.70;37.80;;;;;;5051774;28;19917;-64
2021/07/03 12:29:31;;;;;;;;;;;28.60;38.20;;;;;;5053071;28;19928;-64
2021/07/03 12:32:06;;;;;;;;;;;28.50;38.40;;;;;;5053337;28;19917;-64
2021/07/03 12:34:35;;;;;;;;;;;28.40;38.80;;;;;;5048418;28;20324;-64
2021/07/03 12:37:02;;;;;;;;;;;28.20;39.10;;;;;;5048654;28;20386;-65
2021/07/03 12:39:28;;;;;;;;;;;27.90;39.60;;;;;;5048931;28;19916;-64
2021/07/03 12:41:58;;;;;;;;;;;27.50;40.10;;;;;;5053430;28;19920;-64
2021/07/03 12:44:43;;;;;;;;;;;27.20;40.70;;;;;;5035207;28;19924;-64
2021/07/03 12:47:10;;;;;;;;;;;27.20;40.90;;;;;;5052530;28;19917;-64
2021/07/03 12:49:40;;;;;;;;;;;27.10;40.60;;;;;;5053267;28;19917;-65
2021/07/03 12:52:08;;;;;;;;;;;26.90;40.70;;;;;;5052731;28;19974;-64
2021/07/03 12:54:34;;;;;;;;;;;26.70;41.30;;;;;;5052925;28;19923;-65
2021/07/03 12:56:59;;;;;;;;;;;26.60;41.80;;;;;;5053003;28;19917;-65
2021/07/03 12:59:38;;;;;;;;;;;26.50;42.10;;;;;;5052461;28;19916;-64
2021/07/03 13:02:05;;;;;;;;;;;26.40;42.60;;;;;;5052924;28;19967;-63
2021/07/03 13:04:31;;;;;;;;;;;26.40;42.90;;;;;;5052941;28;20339;-64
2021/07/03 13:06:56;;;;;;;;;;;26.30;43.00;;;;;;5052445;28;19967;-64
2021/07/03 13:09:22;;;;;;;;;;;26.20;42.90;;;;;;5052633;28;19925;-64
2021/07/03 13:11:47;;;;;;;;;;;26.00;43.40;;;;;;5053180;28;19913;-64
2021/07/03 13:14:13;;;;;;;;;;;25.80;43.50;;;;;;5051301;28;20190;-64
2021/07/03 13:16:38;;;;;;;;;;;25.60;44.00;;;;;;5042045;28;20004;-63
2021/07/03 13:19:04;;;;;;;;;;;25.40;44.60;;;;;;5044196;28;19917;-63
2021/07/03 13:21:29;;;;;;;;;;;25.30;44.60;;;;;;5048958;28;19979;-64
2021/07/03 13:23:55;;;;;;;;;;;25.10;45.00;;;;;;5051648;28;20400;-63
2021/07/03 13:26:20;;;;;;;;;;;25.10;45.40;;;;;;5052676;28;19939;-64
2021/07/03 13:28:46;;;;;;;;;;;25.10;45.10;;;;;;5052329;28;20289;-64
2021/07/03 13:31:12;;;;;;;;;;;25.00;45.40;;;;;;5052071;28;19917;-64
2021/07/03 13:33:38;;;;;;;;;;;24.80;45.50;;;;;;5052432;28;19967;-63
2021/07/03 13:36:04;;;;;;;;;;;24.60;46.30;;;;;;5051976;28;19917;-63
2021/07/03 13:38:30;;;;;;;;;;;24.50;47.00;;;;;;5052235;28;20389;-63
2021/07/03 13:40:56;;;;;;;;;;;24.50;47.40;;;;;;5052419;28;19927;-64
2021/07/03 13:43:21;;;;;;;;;;;24.50;47.40;;;;;;5051959;28;19920;-64
2021/07/03 13:45:47;;;;;;;;;;;24.60;47.70;;;;;;5052251;28;20000;-64
2021/07/03 13:48:13;;;;;;;;;;;24.80;48.20;;;;;;5051458;28;19916;-65
2021/07/03 13:50:38;;;;;;;;;;;24.90;47.50;;;;;;5051515;28;19924;-63
2021/07/03 13:53:04;;;;;;;;;;;24.90;47.60;;;;;;5051972;28;20339;-67
2021/07/03 13:55:29;;;;;;;;;;;24.90;47.60;;;;;;5051980;28;20292;-64
2021/07/03 13:57:55;;;;;;;;;;;24.90;47.60;;;;;;5051564;28;19917;-64
2021/07/03 14:00:20;;;;;;;;;;;24.70;47.60;;;;;;5050557;28;19944;-64
2021/07/03 14:02:46;;;;;;;;;;;24.60;47.60;;;;;;5051496;28;19920;-66
2021/07/03 14:05:12;;;;;;;;;;;24.60;47.90;;;;;;5050182;28;20043;-64
2021/07/03 14:07:38;;;;;;;;;;;24.50;47.90;;;;;;5051365;28;20011;-64
2021/07/03 14:10:05;;;;;;;;;;;24.50;48.40;;;;;;5051444;28;19917;-64
2021/07/03 14:12:34;;;;;;;;;;;24.50;48.60;;;;;;5033653;28;20308;-64
2021/07/03 14:15:00;;;;;;;;;;;24.40;48.50;;;;;;5051265;28;19966;-63